Accueil
METAR-TAF:

METAR-TAF

Aéroports :

Wabush, Terre-Neuve-et-Labrador, Canada

Aéroport de Wabush

latitude: 52-56N, longitude: 066-52W, altitude: 551 m

Observation

Le bulletin a été fait il y a 35 minutes, à 02:00 UTC
Vent 10 kt de ouest/nord-ouest
Température -19°C
Humidité 77%
Pression 1025 hPa
Visibilité: 24.1 km
Nuages fragmentés à une hauteur de 2500 ft
neige faible

METAR: CYWK 230200Z 29010KT 15SM -SN BKN025 M19/M22 A3028 RMK SC5 LAST STFD OBS/ NEXT 231000UTC SLP319

Heure: 22:35 (02:35 UTC)

Prévision

Le bulletin a été fait il y a 57 minutes, à 01:38 UTC
Prévision valable du 23 à 02 UTC au 23 à 14 UTC
Vent 10 kt de ouest
Visibilité: 10 km
Nuages épars à une hauteur de 3000 ft
Temporairement
du 23 à 02 UTC au 23 à 14 UTC
Visibilité: 6.4 km
Nuages fragmentés à une hauteur de 2000 ft
neige faible

TAF: CYWK 230138Z 2302/2314 28010KT P6SM SCT030 TEMPO 2302/2314 4SM -SN BKN020 RMK NXT FCST BY 230800Z

Observations et prévisions météorologiques de plus de 4000 aéroports (messages METAR et TAF).

Les stations disponibles sont représentées par des disques jaunes et rouges sur la carte.

Passer la souris dessus pour voir le nom de la station.

Cliquer dessus pour voir les observations et prévisions météorologiques.

Pour changer de carte: cliquez sur les boutons verts avec une croix noire pour zoomer, sur le bouton vert avec un tiret pour effectuer un zoom arrière, ou sur les flèches vertes pour les cartes adjacentes.


METAR-TAF: